Lady Eman — 5IM513 — position and weather

sailwx.info

Track history (hours):
 
Tides and Currents Weather Stations Pressure Air Temp Water Temp Dewpoint Dewpoint Depression Visibility Wind Speed Wind Dir Waves Ship Positions

Lady Eman

Last reported at 2017-Jul-25 14:57 UTC. Time now 2017-Jul-27 00:36 UTC.
Position N 31°19' E 030°04'.

Length 92 m; draft 5.3 m.

Type: Ship (hazmat cat A). MMSI: 677041300.

Date/timePositionNaut miles runAvg speedWind from/ knotsBaromVisibWave heightAir tempDewpointWater temp
2017-Jul-25 14:57N 31°19' E 030°04'  
2017-Jul-18 13:49N 31°23' E 030°05'0 0.0
2017-Jul-18 13:28N 31°23' E 030°05'0 0.0
2017-Jul-18 12:34N 31°23' E 030°05'0 0.0
2017-Jul-18 12:22N 31°23' E 030°05'0 0.0
2017-Jul-17 20:18N 31°23' E 030°05'0 0.0
2017-Jul-17 20:00N 31°23' E 030°05'0 0.0
2017-Jul-17 19:30N 31°23' E 030°05'0 0.0
2017-Jul-17 19:00N 31°23' E 030°05'0 0.0
2017-Jul-17 18:30N 31°23' E 030°05'0 0.0
2017-Jul-17 18:00N 31°23' E 030°05'0 0.0
2017-Jul-17 08:47N 31°23' E 030°05'0 0.9
2017-Jul-17 08:30N 31°23' E 030°05'56 6.5
2017-Jul-16 23:52N 32°06' E 030°48'2 6.4
2017-Jul-16 23:29N 32°08' E 030°50'3 6.6
2017-Jul-16 23:00N 32°10' E 030°52'18 6.6
2017-Jul-16 20:19N 32°23' E 031°07'20 6.7
2017-Jul-16 17:20N 32°38' E 031°23'2 6.7
2017-Jul-16 17:00N 32°39' E 031°25'33 6.5
2017-Jul-16 12:00N 33°03' E 031°52'3 6.1
2017-Jul-16 11:30N 33°05' E 031°54'3 6.0
2017-Jul-16 11:00N 33°07' E 031°57'10 5.9
2017-Jul-16 09:20N 33°14' E 032°05'7 5.9
2017-Jul-16 08:11N 33°19' E 032°10'3 5.9
2017-Jul-16 07:39N 33°22' E 032°13'1 5.9
2017-Jul-16 07:31N 33°22' E 032°13'3 6.0
2017-Jul-16 07:00N 33°25' E 032°16'3 6.1
2017-Jul-16 06:30N 33°27' E 032°18'3 6.0
2017-Jul-16 06:00N 33°29' E 032°20'3 6.0
2017-Jul-16 05:31N 33°31' E 032°23'3 6.0
2017-Jul-16 05:01N 33°33' E 032°25'5 6.0
2017-Jul-16 04:13N 33°37' E 032°29'2 6.1
2017-Jul-16 03:57N 33°38' E 032°31'3 6.1
2017-Jul-16 03:30N 33°40' E 032°33'3 6.1
2017-Jul-16 03:00N 33°42' E 032°36'3 6.3
2017-Jul-16 02:29N 33°45' E 032°38'3 6.4
2017-Jul-16 02:00N 33°47' E 032°41'3 6.5
2017-Jul-16 01:28N 33°49' E 032°44'7 6.6
2017-Jul-16 00:28N 33°54' E 032°49'3 6.6
2017-Jul-15 23:59N 33°56' E 032°52'3 6.7
2017-Jul-15 23:30N 33°59' E 032°55'3 6.7
2017-Jul-15 23:00N 34°01' E 032°58'3 6.7
2017-Jul-15 22:30N 34°03' E 033°00'3 6.8
2017-Jul-15 22:00N 34°06' E 033°03'4 6.8
2017-Jul-15 21:28N 34°08' E 033°06'4 6.9
2017-Jul-15 20:57N 34°11' E 033°09'3 6.8
2017-Jul-15 20:30N 34°13' E 033°12'4 6.8
2017-Jul-15 19:56N 34°16' E 033°15'4 6.7
2017-Jul-15 19:19N 34°19' E 033°19'4 6.9
2017-Jul-15 18:47N 34°22' E 033°22'3 6.9
2017-Jul-15 18:19N 34°24' E 033°24'2 6.7
2017-Jul-15 17:58N 34°26' E 033°26'3 6.6
2017-Jul-15 17:30N 34°28' E 033°29'13 6.6
2017-Jul-15 15:29N 34°37' E 033°41'  
Track history (hours):
 
Tides and Currents Weather Stations Pressure Air Temp Water Temp Dewpoint Dewpoint Depression Visibility Wind Speed Wind Dir Waves Ship Positions

Lady Eman

Last reported at 2017-Jul-25 14:57 UTC. Time now 2017-Jul-27 00:36 UTC.
Position N 31°19' E 030°04'.

Length 92 m; draft 5.3 m.

Type: Ship (hazmat cat A). MMSI: 677041300.

Date/timePositionNaut miles runAvg speedWind from/ knotsBaromVisibWave heightAir tempDewpointWater temp
2017-Jul-25 14:57N 31°19' E 030°04'  
2017-Jul-18 13:49N 31°23' E 030°05'0 0.0
2017-Jul-18 13:28N 31°23' E 030°05'0 0.0
2017-Jul-18 12:34N 31°23' E 030°05'0 0.0
2017-Jul-18 12:22N 31°23' E 030°05'0 0.0
2017-Jul-17 20:18N 31°23' E 030°05'0 0.0
2017-Jul-17 20:00N 31°23' E 030°05'0 0.0
2017-Jul-17 19:30N 31°23' E 030°05'0 0.0
2017-Jul-17 19:00N 31°23' E 030°05'0 0.0
2017-Jul-17 18:30N 31°23' E 030°05'0 0.0
2017-Jul-17 18:00N 31°23' E 030°05'0 0.0
2017-Jul-17 08:47N 31°23' E 030°05'0 0.9
2017-Jul-17 08:30N 31°23' E 030°05'56 6.5
2017-Jul-16 23:52N 32°06' E 030°48'2 6.4
2017-Jul-16 23:29N 32°08' E 030°50'3 6.6
2017-Jul-16 23:00N 32°10' E 030°52'18 6.6
2017-Jul-16 20:19N 32°23' E 031°07'20 6.7
2017-Jul-16 17:20N 32°38' E 031°23'2 6.7
2017-Jul-16 17:00N 32°39' E 031°25'33 6.5
2017-Jul-16 12:00N 33°03' E 031°52'3 6.1
2017-Jul-16 11:30N 33°05' E 031°54'3 6.0
2017-Jul-16 11:00N 33°07' E 031°57'10 5.9
2017-Jul-16 09:20N 33°14' E 032°05'7 5.9
2017-Jul-16 08:11N 33°19' E 032°10'3 5.9
2017-Jul-16 07:39N 33°22' E 032°13'1 5.9
2017-Jul-16 07:31N 33°22' E 032°13'3 6.0
2017-Jul-16 07:00N 33°25' E 032°16'3 6.1
2017-Jul-16 06:30N 33°27' E 032°18'3 6.0
2017-Jul-16 06:00N 33°29' E 032°20'3 6.0
2017-Jul-16 05:31N 33°31' E 032°23'3 6.0
2017-Jul-16 05:01N 33°33' E 032°25'5 6.0
2017-Jul-16 04:13N 33°37' E 032°29'2 6.1
2017-Jul-16 03:57N 33°38' E 032°31'3 6.1
2017-Jul-16 03:30N 33°40' E 032°33'3 6.1
2017-Jul-16 03:00N 33°42' E 032°36'3 6.3
2017-Jul-16 02:29N 33°45' E 032°38'3 6.4
2017-Jul-16 02:00N 33°47' E 032°41'3 6.5
2017-Jul-16 01:28N 33°49' E 032°44'7 6.6
2017-Jul-16 00:28N 33°54' E 032°49'3 6.6
2017-Jul-15 23:59N 33°56' E 032°52'3 6.7
2017-Jul-15 23:30N 33°59' E 032°55'3 6.7
2017-Jul-15 23:00N 34°01' E 032°58'3 6.7
2017-Jul-15 22:30N 34°03' E 033°00'3 6.8
2017-Jul-15 22:00N 34°06' E 033°03'4 6.8
2017-Jul-15 21:28N 34°08' E 033°06'4 6.9
2017-Jul-15 20:57N 34°11' E 033°09'3 6.8
2017-Jul-15 20:30N 34°13' E 033°12'4 6.8
2017-Jul-15 19:56N 34°16' E 033°15'4 6.7
2017-Jul-15 19:19N 34°19' E 033°19'4 6.9
2017-Jul-15 18:47N 34°22' E 033°22'3 6.9
2017-Jul-15 18:19N 34°24' E 033°24'2 6.7
2017-Jul-15 17:58N 34°26' E 033°26'3 6.6
2017-Jul-15 17:30N 34°28' E 033°29'13 6.6
2017-Jul-15 15:29N 34°37' E 033°41'  

Dump ship's entire track history